createdAt,value
2022-08-25T09:51:29.277Z,43.69
2022-08-25T09:54:13.987Z,47.03
2022-08-25T09:56:59.507Z,46.17
2022-08-25T09:59:36.711Z,42.76
2022-08-25T10:02:23.699Z,41.29
2022-08-25T10:04:50.870Z,41.47
2022-08-25T10:07:26.778Z,41.41
2022-08-25T10:09:57.129Z,37.89
2022-08-25T10:12:37.900Z,35.26
2022-08-25T10:15:32.586Z,34.90
2022-08-25T10:18:29.548Z,36.30
2022-08-25T10:21:12.179Z,35.96
2022-08-25T10:23:48.676Z,36.29
2022-08-25T10:26:40.026Z,34.59
2022-08-25T10:29:17.698Z,36.36
2022-08-25T10:31:59.626Z,36.64
2022-08-25T10:34:45.538Z,34.94
2022-08-25T10:37:46.910Z,34.32
2022-08-25T10:40:38.332Z,34.75
2022-08-25T10:43:23.948Z,34.76
2022-08-25T10:46:01.241Z,35.13
2022-08-25T10:48:30.811Z,34.91
2022-08-25T10:51:28.693Z,34.54
2022-08-25T10:54:49.724Z,32.14
2022-08-25T10:57:25.238Z,32.59
2022-08-25T11:00:14.215Z,32.82
2022-08-25T11:02:49.937Z,32.47
2022-08-25T11:05:48.004Z,32.91
2022-08-25T11:08:34.287Z,31.86
2022-08-25T11:11:29.198Z,31.92
2022-08-25T11:14:06.469Z,33.16
2022-08-25T11:17:10.051Z,32.00
2022-08-25T11:19:40.096Z,32.50
2022-08-25T11:22:34.380Z,31.83
2022-08-25T11:25:42.961Z,32.34
2022-08-25T11:28:32.178Z,31.69
2022-08-25T11:31:01.896Z,31.29
2022-08-25T11:33:34.370Z,31.87
2022-08-25T11:36:22.498Z,32.08
2022-08-25T11:42:12.615Z,31.41
2022-08-25T11:45:02.584Z,31.03
2022-08-25T11:47:42.350Z,30.85
2022-08-25T11:50:30.058Z,29.56
2022-08-25T11:53:12.231Z,29.47
2022-08-25T11:55:56.314Z,29.75
2022-08-25T11:58:37.181Z,30.75
2022-08-25T12:01:09.406Z,29.96
2022-08-25T12:03:36.814Z,28.72
2022-08-25T12:06:26.206Z,28.91
2022-08-25T12:09:25.371Z,28.86
2022-08-25T12:12:35.686Z,27.43
2022-08-25T12:15:32.507Z,27.91
2022-08-25T12:18:45.601Z,27.10
2022-08-25T12:21:29.950Z,27.47
2022-08-25T12:24:15.805Z,26.61
2022-08-25T12:26:42.540Z,27.93
2022-08-25T12:29:26.875Z,27.86
2022-08-25T12:32:04.743Z,28.26
2022-08-25T12:35:24.676Z,28.07
2022-08-25T12:38:03.218Z,27.97
2022-08-25T12:40:42.966Z,28.35
2022-08-25T12:43:25.530Z,28.18
2022-08-25T12:46:14.930Z,28.22
2022-08-25T12:48:56.086Z,28.50
2022-08-25T12:51:25.849Z,27.74
2022-08-25T12:54:22.460Z,27.89
2022-08-25T12:57:12.787Z,27.36
2022-08-25T12:59:48.776Z,26.28
2022-08-25T13:02:24.851Z,25.49
2022-08-25T13:05:33.585Z,24.59
2022-08-25T13:08:16.173Z,24.08
2022-08-25T13:10:54.718Z,24.36
2022-08-25T13:13:46.428Z,24.38
2022-08-25T13:16:29.590Z,24.31
2022-08-25T13:18:59.704Z,24.13
2022-08-25T13:21:39.028Z,23.65
2022-08-25T13:28:28.885Z,23.78
2022-08-25T13:31:42.110Z,23.12
2022-08-25T13:34:19.488Z,23.10
2022-08-25T13:37:08.172Z,22.69
2022-08-25T13:39:55.368Z,23.19
2022-08-25T13:42:23.992Z,23.22
2022-08-25T13:44:55.859Z,23.49
2022-08-25T13:47:43.315Z,23.47
2022-08-25T13:50:22.607Z,23.10
2022-08-25T13:53:26.272Z,23.01
2022-08-25T14:11:37.656Z,22.69
2022-08-25T14:14:32.394Z,22.28
2022-08-25T14:17:28.295Z,21.88
2022-08-25T14:19:57.474Z,21.72
2022-08-25T14:22:24.281Z,21.66
2022-08-25T14:24:53.785Z,21.84
2022-08-25T14:28:16.479Z,21.94
2022-08-25T14:30:51.891Z,22.36
2022-08-25T14:33:21.545Z,21.76
2022-08-25T14:35:51.647Z,21.49
2022-08-25T14:38:21.397Z,21.35
2022-08-25T14:40:50.170Z,20.99
2022-08-25T14:43:17.748Z,20.86
2022-08-25T14:45:49.035Z,21.84
2022-08-25T14:48:29.656Z,21.45
2022-08-25T14:50:58.897Z,21.43
2022-08-25T14:53:27.556Z,20.61
2022-08-25T14:55:59.094Z,21.11
2022-08-25T14:58:27.214Z,20.64
2022-08-25T15:00:55.505Z,20.22
2022-08-25T15:03:32.343Z,19.93
2022-08-25T15:06:01.347Z,19.11
2022-08-25T15:08:48.030Z,19.92
2022-08-25T15:11:15.504Z,19.56
2022-08-25T15:13:55.374Z,19.06
2022-08-25T15:16:33.843Z,19.26
2022-08-25T15:19:06.617Z,19.01
2022-08-25T15:21:34.450Z,18.44
2022-08-25T15:24:02.729Z,17.98
2022-08-25T15:26:29.367Z,18.58
2022-08-25T15:28:56.054Z,18.71
2022-08-25T15:31:23.646Z,19.02
2022-08-25T15:33:51.427Z,19.90
2022-08-25T15:36:24.669Z,18.79
2022-08-25T15:38:51.991Z,18.68
2022-08-25T15:41:19.478Z,18.26
2022-08-25T15:43:46.253Z,18.20
2022-08-25T15:46:19.691Z,18.65
2022-08-25T15:48:47.458Z,18.58
2022-08-25T15:51:16.246Z,18.53
2022-08-25T15:53:43.620Z,18.18
2022-08-25T15:56:14.176Z,18.61
2022-08-25T15:58:49.801Z,18.98
2022-08-25T16:01:19.721Z,19.87
2022-08-25T16:03:46.608Z,21.00
2022-08-25T16:06:13.665Z,21.28
2022-08-25T16:08:40.349Z,22.17
2022-08-25T16:11:26.660Z,22.24
2022-08-25T16:13:54.850Z,22.81
2022-08-25T16:16:27.004Z,23.09
2022-08-25T16:18:54.384Z,23.76
2022-08-25T16:21:30.031Z,24.69
2022-08-25T16:24:00.727Z,26.16
2022-08-25T16:26:30.127Z,27.68
2022-08-25T16:28:57.825Z,27.15
2022-08-25T16:31:31.065Z,28.83
2022-08-25T16:34:01.917Z,30.03
2022-08-25T16:36:29.635Z,30.53
2022-08-25T16:38:57.777Z,32.74
2022-08-25T16:41:34.319Z,34.15
2022-08-25T16:44:04.339Z,35.08
2022-08-25T16:46:41.457Z,35.84
2022-08-25T16:49:09.580Z,36.79
2022-08-25T16:51:38.548Z,37.36
2022-08-25T16:54:25.206Z,37.72
2022-08-25T16:56:55.090Z,38.60
2022-08-25T16:59:23.348Z,39.04
2022-08-25T17:01:58.398Z,39.65
2022-08-25T17:04:29.589Z,40.16
2022-08-25T17:07:00.528Z,40.68
2022-08-25T17:09:29.735Z,41.30
2022-08-25T17:12:02.256Z,42.17
2022-08-25T17:14:29.009Z,42.73
2022-08-25T17:16:55.818Z,42.79
2022-08-25T17:19:26.370Z,42.73
2022-08-25T17:21:54.901Z,42.58
2022-08-25T17:24:22.381Z,43.21
2022-08-25T17:26:56.573Z,42.34
2022-08-25T17:29:26.607Z,42.57
2022-08-25T17:31:57.147Z,42.43
2022-08-25T17:34:24.940Z,42.94
2022-08-25T17:36:56.633Z,43.25
2022-08-25T17:39:24.392Z,43.22
2022-08-25T17:41:52.480Z,43.37
2022-08-25T17:44:19.955Z,43.24
2022-08-25T17:46:48.247Z,42.62
2022-08-25T17:49:17.203Z,42.67
2022-08-25T17:51:44.038Z,43.32
2022-08-25T17:54:12.631Z,43.97
2022-08-25T17:56:39.915Z,44.96
2022-08-25T17:59:07.040Z,44.75
2022-08-25T18:01:40.537Z,44.58
2022-08-25T18:04:17.514Z,44.33
2022-08-25T18:06:45.852Z,44.11
2022-08-25T18:09:13.170Z,44.13
2022-08-25T18:11:39.816Z,44.85
2022-08-25T18:14:11.511Z,45.06
2022-08-25T18:16:38.969Z,44.94
2022-08-25T18:19:06.605Z,45.66
2022-08-25T18:21:36.937Z,45.39
2022-08-25T18:24:04.638Z,45.14
2022-08-25T18:26:34.180Z,45.28
2022-08-25T18:29:01.279Z,45.36
2022-08-25T18:31:28.573Z,45.45
2022-08-25T18:34:02.532Z,45.37
2022-08-25T18:36:39.763Z,46.04
2022-08-25T18:39:32.867Z,46.64
2022-08-25T18:42:03.621Z,47.00
2022-08-25T18:44:31.545Z,47.79
2022-08-25T18:46:59.675Z,48.33
2022-08-25T18:49:34.452Z,48.03
2022-08-25T18:52:01.164Z,48.97
2022-08-25T18:54:40.180Z,48.86
2022-08-25T18:57:08.172Z,49.43
2022-08-25T18:59:39.643Z,50.17
2022-08-25T19:02:12.737Z,50.19
2022-08-25T19:04:42.898Z,52.46
2022-08-25T19:07:12.254Z,53.28
2022-08-25T19:09:39.586Z,53.82
2022-08-25T19:14:38.659Z,53.10
2022-08-25T19:17:08.237Z,52.17
2022-08-25T19:19:35.046Z,53.19
2022-08-25T19:22:02.411Z,52.98
2022-08-25T19:24:31.592Z,54.21
2022-08-25T19:27:02.303Z,54.79
2022-08-25T19:29:30.437Z,55.72
2022-08-25T19:34:51.604Z,56.46
2022-08-25T19:37:18.539Z,56.07
2022-08-25T19:39:52.904Z,56.96
2022-08-25T19:42:35.098Z,57.73
2022-08-25T19:45:07.819Z,57.58
2022-08-25T19:48:00.554Z,58.25
2022-08-25T19:53:16.928Z,57.33
2022-08-25T19:55:43.595Z,56.53
2022-08-25T19:58:11.558Z,57.30
2022-08-25T20:00:40.449Z,55.80
2022-08-25T20:03:08.977Z,55.47
2022-08-25T20:05:38.504Z,56.33
2022-08-25T20:08:06.147Z,56.60
2022-08-25T20:10:39.451Z,56.80
2022-08-25T20:13:14.286Z,56.98
2022-08-25T20:15:42.199Z,56.61
2022-08-25T20:18:09.473Z,57.89
2022-08-25T20:20:36.561Z,58.00
2022-08-25T20:23:30.442Z,59.31
2022-08-25T20:25:57.154Z,60.17
2022-08-25T20:28:24.704Z,61.14
2022-08-25T20:30:51.411Z,61.77
2022-08-25T20:33:22.542Z,62.14
2022-08-25T20:35:49.902Z,61.88
2022-08-25T20:38:20.042Z,62.13
2022-08-25T20:40:47.204Z,62.00
2022-08-25T20:43:15.474Z,62.90
2022-08-25T20:45:43.112Z,63.64
2022-08-25T20:48:12.413Z,63.10
2022-08-25T20:50:39.954Z,63.27
2022-08-25T20:53:10.178Z,64.44
2022-08-25T20:55:44.348Z,65.06
2022-08-25T20:58:12.770Z,65.61
2022-08-25T21:00:45.943Z,67.18
2022-08-25T21:03:12.925Z,66.59
2022-08-25T21:05:41.072Z,65.76
2022-08-25T21:08:08.712Z,66.53
2022-08-25T21:10:35.937Z,66.05
2022-08-25T21:13:02.633Z,66.83
2022-08-25T21:15:30.050Z,65.94
2022-08-25T21:17:57.828Z,66.20
2022-08-25T21:20:25.607Z,66.47
2022-08-25T21:22:53.288Z,66.40
2022-08-25T21:25:20.595Z,66.25
2022-08-25T21:27:48.070Z,66.38
2022-08-25T21:30:16.592Z,65.19
2022-08-25T21:32:52.970Z,65.77
2022-08-25T21:35:20.445Z,66.36
2022-08-25T21:37:53.239Z,66.02
2022-08-25T21:40:21.895Z,66.47
2022-08-25T21:42:49.122Z,67.67
2022-08-25T21:45:16.659Z,67.49
2022-08-25T21:47:47.907Z,67.40
2022-08-25T21:50:14.756Z,67.16
2022-08-25T21:52:42.238Z,66.75
2022-08-25T21:55:13.610Z,66.90
2022-08-25T21:57:43.802Z,68.00
2022-08-25T22:00:13.198Z,68.18
2022-08-25T22:02:40.052Z,68.50
2022-08-25T22:05:11.630Z,67.68
2022-08-25T22:07:41.726Z,67.13
2022-08-25T22:10:12.777Z,67.53
2022-08-25T22:12:44.969Z,67.75
2022-08-25T22:15:13.625Z,67.62
2022-08-25T22:17:40.720Z,68.40
2022-08-25T22:20:08.536Z,68.37
2022-08-25T22:22:36.185Z,68.54
2022-08-25T22:25:03.928Z,69.29
2022-08-25T22:27:32.984Z,69.82
2022-08-25T22:30:00.808Z,69.25
2022-08-25T22:32:27.619Z,68.33
2022-08-25T22:34:54.283Z,68.91
2022-08-25T22:37:20.943Z,68.66
2022-08-25T22:39:50.895Z,69.59
2022-08-25T22:42:20.152Z,69.26
2022-08-25T22:44:53.971Z,69.25
2022-08-25T22:47:20.912Z,69.58
2022-08-25T22:49:47.637Z,70.10
2022-08-25T22:52:15.141Z,70.40
2022-08-25T22:54:41.990Z,70.21
2022-08-25T22:57:09.784Z,70.25
2022-08-25T22:59:37.092Z,69.97
2022-08-25T23:02:05.505Z,69.61
2022-08-25T23:04:33.590Z,70.24
2022-08-25T23:07:00.309Z,71.02
2022-08-25T23:09:26.964Z,70.08
2022-08-25T23:11:54.012Z,70.97
2022-08-25T23:14:20.866Z,71.24
2022-08-25T23:16:48.626Z,71.14
2022-08-25T23:19:16.720Z,70.79
2022-08-25T23:22:03.270Z,71.31
2022-08-25T23:24:31.707Z,71.06
2022-08-25T23:27:00.598Z,71.13
2022-08-25T23:29:28.425Z,71.39
2022-08-25T23:31:56.768Z,70.82
2022-08-25T23:34:24.224Z,71.26
2022-08-25T23:36:51.497Z,71.30
2022-08-25T23:39:18.782Z,71.22
2022-08-25T23:41:48.885Z,70.84
2022-08-25T23:44:17.531Z,71.20
2022-08-25T23:46:47.134Z,71.26
2022-08-25T23:49:20.096Z,71.54
2022-08-25T23:51:52.893Z,71.79
2022-08-25T23:54:21.197Z,72.46
2022-08-25T23:56:52.359Z,73.10
2022-08-25T23:59:24.629Z,73.85
